createdAt,value
2022-11-24T00:00:01.550Z,69.00
2022-11-24T00:10:01.045Z,74.90
2022-11-24T00:20:01.180Z,60.80
2022-11-24T00:30:01.024Z,60.40
2022-11-24T00:40:00.132Z,63.50
2022-11-24T00:50:01.004Z,59.70
2022-11-24T01:00:01.031Z,63.80
2022-11-24T01:10:01.066Z,54.80
2022-11-24T01:20:01.263Z,74.60
2022-11-24T01:30:00.157Z,74.60
2022-11-24T01:40:00.985Z,64.30
2022-11-24T01:50:01.316Z,77.40
2022-11-24T02:00:00.970Z,65.80
2022-11-24T02:10:01.038Z,61.50
2022-11-24T02:20:00.140Z,68.10
2022-11-24T02:30:01.557Z,69.40
2022-11-24T02:40:01.223Z,67.20
2022-11-24T02:50:01.546Z,65.10
2022-11-24T03:00:00.119Z,67.30
2022-11-24T03:10:01.023Z,58.10
2022-11-24T03:20:04.490Z,62.30
2022-11-24T03:40:00.119Z,63.70
2022-11-24T03:50:02.132Z,65.10
2022-11-24T04:00:00.997Z,52.40
2022-11-24T04:10:01.016Z,57.70
2022-11-24T04:20:00.969Z,56.50
2022-11-24T04:30:02.301Z,52.00
2022-11-24T04:40:00.136Z,54.60
2022-11-24T04:50:01.570Z,55.10
2022-11-24T05:00:02.202Z,45.60
2022-11-24T05:10:01.068Z,56.20
2022-11-24T05:20:01.224Z,46.30
2022-11-24T05:30:00.137Z,51.00
2022-11-24T05:40:00.154Z,43.10
2022-11-24T05:50:01.601Z,41.30
2022-11-24T06:00:00.136Z,44.40
2022-11-24T06:10:01.013Z,50.70
2022-11-24T06:20:00.180Z,45.40
2022-11-24T06:30:01.053Z,42.00
2022-11-24T06:40:02.247Z,40.80
2022-11-24T06:50:02.387Z,38.20
2022-11-24T07:00:01.077Z,43.10
2022-11-24T07:10:01.270Z,35.60
2022-11-24T07:20:01.264Z,43.90
2022-11-24T07:30:01.269Z,37.50
2022-11-24T07:40:00.962Z,42.10
2022-11-24T07:50:01.073Z,38.70
2022-11-24T08:00:02.717Z,42.60
2022-11-24T08:10:01.265Z,40.10
2022-11-24T08:20:01.277Z,42.40
2022-11-24T08:30:00.196Z,41.40
2022-11-24T08:40:01.195Z,35.40
2022-11-24T08:50:01.306Z,37.80
2022-11-24T09:00:00.124Z,36.30
2022-11-24T09:10:01.313Z,35.50
2022-11-24T09:20:02.603Z,41.10
2022-11-24T09:30:01.251Z,40.00
2022-11-24T09:40:01.058Z,34.30
2022-11-24T09:50:02.206Z,39.70
2022-11-24T10:00:01.283Z,39.70
2022-11-24T10:10:01.076Z,39.90
2022-11-24T10:20:00.998Z,37.00
2022-11-24T10:30:01.280Z,40.40
2022-11-24T10:40:01.241Z,43.70
2022-11-24T10:50:01.257Z,38.50
2022-11-24T11:00:01.301Z,36.00
2022-11-24T11:10:01.324Z,32.10
2022-11-24T11:20:02.424Z,32.60
2022-11-24T11:40:01.628Z,32.00
2022-11-24T11:50:01.004Z,35.10
2022-11-24T12:00:03.943Z,33.20
2022-11-24T12:10:01.557Z,30.30
2022-11-24T12:20:00.106Z,37.40
2022-11-24T12:30:01.324Z,34.40
2022-11-24T12:40:01.233Z,34.60
2022-11-24T12:50:01.082Z,34.10
2022-11-24T13:00:00.988Z,32.40
2022-11-24T13:10:01.282Z,29.40
2022-11-24T13:20:00.141Z,32.70
2022-11-24T13:30:01.128Z,35.60
2022-11-24T13:40:01.016Z,30.40
2022-11-24T13:50:01.624Z,38.30
2022-11-24T14:00:01.529Z,36.90
2022-11-24T14:10:01.020Z,34.90
2022-11-24T14:20:00.153Z,32.00
2022-11-24T14:30:01.933Z,37.20
2022-11-24T14:40:00.110Z,33.30
2022-11-24T14:50:00.223Z,34.80
2022-11-24T15:00:03.188Z,37.20
2022-11-24T15:10:00.210Z,34.60
2022-11-24T15:20:01.035Z,36.00
2022-11-24T15:30:01.245Z,35.10
2022-11-24T15:40:01.024Z,44.30
2022-11-24T15:50:01.293Z,42.50
2022-11-24T16:00:01.061Z,41.90
2022-11-24T16:10:01.458Z,41.40
2022-11-24T16:20:01.244Z,44.60
2022-11-24T16:30:02.178Z,43.10
2022-11-24T16:40:01.253Z,41.50
2022-11-24T16:50:01.699Z,41.40
2022-11-24T17:00:01.765Z,49.10
2022-11-24T17:10:01.321Z,45.30
2022-11-24T17:20:01.255Z,46.60
2022-11-24T17:30:01.076Z,42.10
2022-11-24T17:40:26.601Z,40.60
2022-11-24T17:50:01.560Z,39.40
2022-11-24T18:00:01.251Z,40.40
2022-11-24T18:10:01.025Z,43.00
2022-11-24T18:20:01.305Z,46.60
2022-11-24T18:30:01.757Z,42.50
2022-11-24T18:40:01.254Z,46.70
2022-11-24T18:50:01.299Z,43.00
2022-11-24T19:00:01.040Z,36.20
2022-11-24T19:10:02.158Z,37.40
2022-11-24T19:20:01.553Z,43.60
2022-11-24T19:30:01.326Z,40.50
2022-11-24T19:40:02.378Z,38.40
2022-11-24T19:50:02.878Z,38.10
2022-11-24T20:00:02.938Z,35.80
2022-11-24T20:10:06.200Z,39.50
2022-11-24T20:20:01.036Z,45.00
2022-11-24T20:30:01.002Z,38.40
2022-11-24T20:40:01.077Z,38.90
2022-11-24T20:50:01.345Z,50.60
2022-11-24T21:00:00.992Z,44.30
2022-11-24T21:10:01.248Z,38.40
2022-11-24T21:20:01.452Z,48.80
2022-11-24T21:30:01.078Z,45.10
2022-11-24T21:40:01.509Z,45.50
2022-11-24T21:50:01.047Z,49.90
2022-11-24T22:00:01.325Z,49.10
2022-11-24T22:10:01.244Z,45.80
2022-11-24T22:20:00.159Z,51.50
2022-11-24T22:30:01.049Z,62.80
2022-11-24T22:40:01.213Z,50.20
2022-11-24T22:50:01.032Z,54.50
2022-11-24T23:00:01.064Z,40.70
2022-11-24T23:10:01.229Z,40.90
2022-11-24T23:20:04.418Z,36.60
2022-11-24T23:30:00.147Z,30.20
2022-11-24T23:40:01.301Z,34.40
2022-11-24T23:50:01.988Z,35.80
